sensor_id;sensor_type;location;lat;lon;timestamp;temperature;humidity
32296;DHT22;18781;51.550;5.418;2023-02-15T00:01:37;6.40;65.20
32296;DHT22;18781;51.550;5.418;2023-02-15T00:04:04;6.40;65.20
32296;DHT22;18781;51.550;5.418;2023-02-15T00:06:30;6.40;65.30
32296;DHT22;18781;51.550;5.418;2023-02-15T00:08:56;6.30;65.30
32296;DHT22;18781;51.550;5.418;2023-02-15T00:11:22;6.30;65.30
32296;DHT22;18781;51.550;5.418;2023-02-15T00:14:14;6.30;65.30
32296;DHT22;18781;51.550;5.418;2023-02-15T00:16:41;6.20;65.60
32296;DHT22;18781;51.550;5.418;2023-02-15T00:19:08;6.20;65.40
32296;DHT22;18781;51.550;5.418;2023-02-15T00:21:36;6.20;65.40
32296;DHT22;18781;51.550;5.418;2023-02-15T00:24:03;6.20;65.20
32296;DHT22;18781;51.550;5.418;2023-02-15T00:26:30;6.10;65.20
32296;DHT22;18781;51.550;5.418;2023-02-15T00:28:56;6.10;65.30
32296;DHT22;18781;51.550;5.418;2023-02-15T00:31:29;6.10;65.40
32296;DHT22;18781;51.550;5.418;2023-02-15T00:34:12;6.00;65.60
32296;DHT22;18781;51.550;5.418;2023-02-15T00:36:38;6.00;66.30
32296;DHT22;18781;51.550;5.418;2023-02-15T00:39:04;6.00;65.80
32296;DHT22;18781;51.550;5.418;2023-02-15T00:41:33;6.00;65.80
32296;DHT22;18781;51.550;5.418;2023-02-15T00:43:59;6.00;65.80
32296;DHT22;18781;51.550;5.418;2023-02-15T00:46:24;6.00;65.80
32296;DHT22;18781;51.550;5.418;2023-02-15T00:48:50;5.90;65.70
32296;DHT22;18781;51.550;5.418;2023-02-15T00:51:15;5.90;65.80
32296;DHT22;18781;51.550;5.418;2023-02-15T00:53:42;5.90;65.90
32296;DHT22;18781;51.550;5.418;2023-02-15T00:56:09;5.90;65.90
32296;DHT22;18781;51.550;5.418;2023-02-15T00:58:34;5.90;65.90
32296;DHT22;18781;51.550;5.418;2023-02-15T01:01:08;5.90;66.00
32296;DHT22;18781;51.550;5.418;2023-02-15T01:03:34;5.80;65.90
32296;DHT22;18781;51.550;5.418;2023-02-15T01:06:00;5.80;65.80
32296;DHT22;18781;51.550;5.418;2023-02-15T01:08:26;5.80;65.70
32296;DHT22;18781;51.550;5.418;2023-02-15T01:10:52;5.80;65.60
32296;DHT22;18781;51.550;5.418;2023-02-15T01:13:18;5.80;65.80
32296;DHT22;18781;51.550;5.418;2023-02-15T01:15:44;5.70;65.80
32296;DHT22;18781;51.550;5.418;2023-02-15T01:18:11;5.70;65.70
32296;DHT22;18781;51.550;5.418;2023-02-15T01:20:39;5.70;65.80
32296;DHT22;18781;51.550;5.418;2023-02-15T01:23:07;5.70;66.00
32296;DHT22;18781;51.550;5.418;2023-02-15T01:25:34;5.60;65.90
32296;DHT22;18781;51.550;5.418;2023-02-15T01:28:00;5.60;65.90
32296;DHT22;18781;51.550;5.418;2023-02-15T01:30:25;5.60;65.90
32296;DHT22;18781;51.550;5.418;2023-02-15T01:32:51;5.60;66.00
32296;DHT22;18781;51.550;5.418;2023-02-15T01:35:17;5.60;66.10
32296;DHT22;18781;51.550;5.418;2023-02-15T01:37:42;5.60;66.10
32296;DHT22;18781;51.550;5.418;2023-02-15T01:40:12;5.50;65.90
32296;DHT22;18781;51.550;5.418;2023-02-15T01:42:39;5.50;66.10
32296;DHT22;18781;51.550;5.418;2023-02-15T01:45:26;5.50;66.00
32296;DHT22;18781;51.550;5.418;2023-02-15T01:48:03;5.50;66.70
32296;DHT22;18781;51.550;5.418;2023-02-15T01:52:56;5.40;66.00
32296;DHT22;18781;51.550;5.418;2023-02-15T01:55:27;5.40;66.00
32296;DHT22;18781;51.550;5.418;2023-02-15T01:57:54;5.40;66.10
32296;DHT22;18781;51.550;5.418;2023-02-15T02:00:20;5.40;65.90
32296;DHT22;18781;51.550;5.418;2023-02-15T02:02:48;5.40;65.90
32296;DHT22;18781;51.550;5.418;2023-02-15T02:05:15;5.30;66.00
32296;DHT22;18781;51.550;5.418;2023-02-15T02:07:43;5.30;66.00
32296;DHT22;18781;51.550;5.418;2023-02-15T02:10:12;5.30;66.00
32296;DHT22;18781;51.550;5.418;2023-02-15T02:12:40;5.20;66.00
32296;DHT22;18781;51.550;5.418;2023-02-15T02:15:07;5.20;66.10
32296;DHT22;18781;51.550;5.418;2023-02-15T02:20:52;5.20;66.40
32296;DHT22;18781;51.550;5.418;2023-02-15T02:34:27;5.10;66.30
32296;DHT22;18781;51.550;5.418;2023-02-15T02:37:12;5.00;66.30
32296;DHT22;18781;51.550;5.418;2023-02-15T02:40:01;5.00;66.70
32296;DHT22;18781;51.550;5.418;2023-02-15T02:42:36;5.00;66.50
32296;DHT22;18781;51.550;5.418;2023-02-15T02:45:17;5.00;66.40
32296;DHT22;18781;51.550;5.418;2023-02-15T02:47:55;5.00;66.90
32296;DHT22;18781;51.550;5.418;2023-02-15T02:50:25;4.90;66.70
32296;DHT22;18781;51.550;5.418;2023-02-15T02:52:53;5.00;66.50
32296;DHT22;18781;51.550;5.418;2023-02-15T03:00:40;4.90;66.70
32296;DHT22;18781;51.550;5.418;2023-02-15T03:03:21;4.90;66.70
32296;DHT22;18781;51.550;5.418;2023-02-15T03:05:50;4.80;66.70
32296;DHT22;18781;51.550;5.418;2023-02-15T03:08:19;4.90;66.70
32296;DHT22;18781;51.550;5.418;2023-02-15T03:10:48;4.80;66.60
32296;DHT22;18781;51.550;5.418;2023-02-15T03:13:14;4.80;67.10
32296;DHT22;18781;51.550;5.418;2023-02-15T03:15:41;4.80;66.40
32296;DHT22;18781;51.550;5.418;2023-02-15T03:18:33;4.80;66.60
32296;DHT22;18781;51.550;5.418;2023-02-15T03:21:01;4.70;66.70
32296;DHT22;18781;51.550;5.418;2023-02-15T03:23:28;4.70;66.70
32296;DHT22;18781;51.550;5.418;2023-02-15T03:26:01;4.70;66.80
32296;DHT22;18781;51.550;5.418;2023-02-15T03:28:43;4.70;67.00
32296;DHT22;18781;51.550;5.418;2023-02-15T03:31:12;4.70;67.30
32296;DHT22;18781;51.550;5.418;2023-02-15T03:33:44;4.70;66.80
32296;DHT22;18781;51.550;5.418;2023-02-15T03:36:28;4.70;66.70
32296;DHT22;18781;51.550;5.418;2023-02-15T03:39:20;4.60;67.00
32296;DHT22;18781;51.550;5.418;2023-02-15T03:41:54;4.60;67.60
32296;DHT22;18781;51.550;5.418;2023-02-15T03:44:27;4.60;67.00
32296;DHT22;18781;51.550;5.418;2023-02-15T03:47:00;4.50;67.10
32296;DHT22;18781;51.550;5.418;2023-02-15T03:49:54;4.50;67.30
32296;DHT22;18781;51.550;5.418;2023-02-15T03:52:21;4.60;68.20
32296;DHT22;18781;51.550;5.418;2023-02-15T03:54:49;4.60;67.60
32296;DHT22;18781;51.550;5.418;2023-02-15T03:57:25;4.60;67.70
32296;DHT22;18781;51.550;5.418;2023-02-15T04:00:22;4.60;67.90
32296;DHT22;18781;51.550;5.418;2023-02-15T04:03:29;4.60;67.60
32296;DHT22;18781;51.550;5.418;2023-02-15T04:05:57;4.50;68.20
32296;DHT22;18781;51.550;5.418;2023-02-15T04:08:22;4.50;67.60
32296;DHT22;18781;51.550;5.418;2023-02-15T04:11:08;4.60;67.60
32296;DHT22;18781;51.550;5.418;2023-02-15T04:13:33;4.50;67.50
32296;DHT22;18781;51.550;5.418;2023-02-15T04:15:59;4.50;67.50
32296;DHT22;18781;51.550;5.418;2023-02-15T04:18:32;4.50;67.50
32296;DHT22;18781;51.550;5.418;2023-02-15T04:21:17;4.50;67.50
32296;DHT22;18781;51.550;5.418;2023-02-15T04:24:01;4.50;67.50
32296;DHT22;18781;51.550;5.418;2023-02-15T04:26:46;4.50;67.50
32296;DHT22;18781;51.550;5.418;2023-02-15T04:29:14;4.50;67.50
32296;DHT22;18781;51.550;5.418;2023-02-15T04:31:40;4.50;67.50
32296;DHT22;18781;51.550;5.418;2023-02-15T04:34:06;4.50;67.50
32296;DHT22;18781;51.550;5.418;2023-02-15T04:36:32;4.50;67.50
32296;DHT22;18781;51.550;5.418;2023-02-15T04:38:57;4.50;67.60
32296;DHT22;18781;51.550;5.418;2023-02-15T04:41:23;4.50;67.50
32296;DHT22;18781;51.550;5.418;2023-02-15T04:43:48;4.50;67.60
32296;DHT22;18781;51.550;5.418;2023-02-15T04:46:14;4.50;67.50
32296;DHT22;18781;51.550;5.418;2023-02-15T04:48:39;4.40;67.40
32296;DHT22;18781;51.550;5.418;2023-02-15T04:51:08;4.40;67.40
32296;DHT22;18781;51.550;5.418;2023-02-15T04:53:34;4.50;67.60
32296;DHT22;18781;51.550;5.418;2023-02-15T04:56:01;4.50;68.10
32296;DHT22;18781;51.550;5.418;2023-02-15T04:58:26;4.40;67.30
32296;DHT22;18781;51.550;5.418;2023-02-15T05:00:55;4.40;67.40
32296;DHT22;18781;51.550;5.418;2023-02-15T05:03:21;4.40;67.50
32296;DHT22;18781;51.550;5.418;2023-02-15T05:05:46;4.40;67.50
32296;DHT22;18781;51.550;5.418;2023-02-15T05:08:12;4.40;67.60
32296;DHT22;18781;51.550;5.418;2023-02-15T05:10:37;4.40;67.70
32296;DHT22;18781;51.550;5.418;2023-02-15T05:13:03;4.40;67.70
32296;DHT22;18781;51.550;5.418;2023-02-15T05:15:29;4.40;67.70
32296;DHT22;18781;51.550;5.418;2023-02-15T05:17:54;4.40;67.80
32296;DHT22;18781;51.550;5.418;2023-02-15T05:20:20;4.40;67.80
32296;DHT22;18781;51.550;5.418;2023-02-15T05:22:45;4.40;67.90
32296;DHT22;18781;51.550;5.418;2023-02-15T05:25:11;4.40;68.60
32296;DHT22;18781;51.550;5.418;2023-02-15T05:27:55;4.40;68.10
32296;DHT22;18781;51.550;5.418;2023-02-15T05:30:39;4.40;68.20
32296;DHT22;18781;51.550;5.418;2023-02-15T05:33:06;4.40;68.20
32296;DHT22;18781;51.550;5.418;2023-02-15T05:35:32;4.40;68.30
32296;DHT22;18781;51.550;5.418;2023-02-15T05:37:58;4.40;68.30
32296;DHT22;18781;51.550;5.418;2023-02-15T05:40:23;4.40;68.30
32296;DHT22;18781;51.550;5.418;2023-02-15T05:42:49;4.40;68.20
32296;DHT22;18781;51.550;5.418;2023-02-15T05:45:14;4.40;68.30
32296;DHT22;18781;51.550;5.418;2023-02-15T05:47:41;4.40;68.20
32296;DHT22;18781;51.550;5.418;2023-02-15T05:50:07;4.40;68.20
32296;DHT22;18781;51.550;5.418;2023-02-15T05:52:33;4.40;68.20
32296;DHT22;18781;51.550;5.418;2023-02-15T05:54:59;4.40;68.20
32296;DHT22;18781;51.550;5.418;2023-02-15T05:57:26;4.40;68.30
32296;DHT22;18781;51.550;5.418;2023-02-15T05:59:52;4.30;68.20
32296;DHT22;18781;51.550;5.418;2023-02-15T06:02:17;4.30;68.20
32296;DHT22;18781;51.550;5.418;2023-02-15T06:04:43;4.30;68.20
32296;DHT22;18781;51.550;5.418;2023-02-15T06:07:08;4.30;68.20
32296;DHT22;18781;51.550;5.418;2023-02-15T06:09:34;4.30;68.20
32296;DHT22;18781;51.550;5.418;2023-02-15T06:11:59;4.30;68.20
32296;DHT22;18781;51.550;5.418;2023-02-15T06:14:25;4.30;68.20
32296;DHT22;18781;51.550;5.418;2023-02-15T06:16:51;4.30;68.10
32296;DHT22;18781;51.550;5.418;2023-02-15T06:19:16;4.30;68.20
32296;DHT22;18781;51.550;5.418;2023-02-15T06:21:42;4.30;68.30
32296;DHT22;18781;51.550;5.418;2023-02-15T06:24:10;4.30;68.20
32296;DHT22;18781;51.550;5.418;2023-02-15T06:26:36;4.30;68.20
32296;DHT22;18781;51.550;5.418;2023-02-15T06:29:02;4.30;68.20
32296;DHT22;18781;51.550;5.418;2023-02-15T06:31:28;4.30;68.20
32296;DHT22;18781;51.550;5.418;2023-02-15T06:33:54;4.30;68.20
32296;DHT22;18781;51.550;5.418;2023-02-15T06:36:27;4.30;68.20
32296;DHT22;18781;51.550;5.418;2023-02-15T06:38:53;4.20;68.20
32296;DHT22;18781;51.550;5.418;2023-02-15T06:41:18;4.20;68.30
32296;DHT22;18781;51.550;5.418;2023-02-15T06:43:44;4.20;68.30
32296;DHT22;18781;51.550;5.418;2023-02-15T06:46:10;4.20;68.20
32296;DHT22;18781;51.550;5.418;2023-02-15T06:48:35;4.20;68.30
32296;DHT22;18781;51.550;5.418;2023-02-15T06:51:13;4.20;68.30
32296;DHT22;18781;51.550;5.418;2023-02-15T06:53:39;4.20;68.80
32296;DHT22;18781;51.550;5.418;2023-02-15T06:56:07;4.20;68.40
32296;DHT22;18781;51.550;5.418;2023-02-15T06:58:40;4.20;68.50
32296;DHT22;18781;51.550;5.418;2023-02-15T07:01:07;4.20;68.60
32296;DHT22;18781;51.550;5.418;2023-02-15T07:03:33;4.20;68.60
32296;DHT22;18781;51.550;5.418;2023-02-15T07:06:02;4.20;68.60
32296;DHT22;18781;51.550;5.418;2023-02-15T07:08:29;4.20;68.70
32296;DHT22;18781;51.550;5.418;2023-02-15T07:10:55;4.20;68.80
32296;DHT22;18781;51.550;5.418;2023-02-15T07:13:41;4.20;68.80
32296;DHT22;18781;51.550;5.418;2023-02-15T07:16:09;4.20;69.00
32296;DHT22;18781;51.550;5.418;2023-02-15T07:18:35;4.20;68.90
32296;DHT22;18781;51.550;5.418;2023-02-15T07:21:01;4.20;69.00
32296;DHT22;18781;51.550;5.418;2023-02-15T07:23:28;4.20;69.10
32296;DHT22;18781;51.550;5.418;2023-02-15T07:25:58;4.20;69.30
32296;DHT22;18781;51.550;5.418;2023-02-15T07:28:24;4.20;69.50
32296;DHT22;18781;51.550;5.418;2023-02-15T07:30:49;4.20;69.40
32296;DHT22;18781;51.550;5.418;2023-02-15T07:33:15;4.20;69.40
32296;DHT22;18781;51.550;5.418;2023-02-15T07:35:51;4.30;69.50
32296;DHT22;18781;51.550;5.418;2023-02-15T07:38:17;4.30;69.60
32296;DHT22;18781;51.550;5.418;2023-02-15T07:40:44;4.30;69.60
32296;DHT22;18781;51.550;5.418;2023-02-15T07:43:10;4.30;69.70
32296;DHT22;18781;51.550;5.418;2023-02-15T07:45:36;4.30;69.80
32296;DHT22;18781;51.550;5.418;2023-02-15T07:48:03;4.30;69.90
32296;DHT22;18781;51.550;5.418;2023-02-15T07:50:29;4.40;70.00
32296;DHT22;18781;51.550;5.418;2023-02-15T07:52:54;4.40;70.10
32296;DHT22;18781;51.550;5.418;2023-02-15T07:55:20;4.40;70.10
32296;DHT22;18781;51.550;5.418;2023-02-15T07:57:47;4.40;70.20
32296;DHT22;18781;51.550;5.418;2023-02-15T08:00:15;4.50;70.30
32296;DHT22;18781;51.550;5.418;2023-02-15T08:02:41;4.50;70.40
32296;DHT22;18781;51.550;5.418;2023-02-15T08:05:07;4.60;70.50
32296;DHT22;18781;51.550;5.418;2023-02-15T08:07:33;4.60;70.60
32296;DHT22;18781;51.550;5.418;2023-02-15T08:09:58;4.60;70.70
32296;DHT22;18781;51.550;5.418;2023-02-15T08:12:26;4.70;70.90
32296;DHT22;18781;51.550;5.418;2023-02-15T08:14:52;4.70;71.00
32296;DHT22;18781;51.550;5.418;2023-02-15T08:17:17;4.70;71.00
32296;DHT22;18781;51.550;5.418;2023-02-15T08:19:43;4.80;71.10
32296;DHT22;18781;51.550;5.418;2023-02-15T08:22:13;4.80;71.10
32296;DHT22;18781;51.550;5.418;2023-02-15T08:24:39;4.90;71.30
32296;DHT22;18781;51.550;5.418;2023-02-15T08:27:07;4.90;71.30
32296;DHT22;18781;51.550;5.418;2023-02-15T08:29:35;5.00;71.40
32296;DHT22;18781;51.550;5.418;2023-02-15T08:32:04;5.10;71.50
32296;DHT22;18781;51.550;5.418;2023-02-15T08:34:32;5.10;71.60
32296;DHT22;18781;51.550;5.418;2023-02-15T08:36:58;5.20;71.70
32296;DHT22;18781;51.550;5.418;2023-02-15T08:39:24;5.20;71.60
32296;DHT22;18781;51.550;5.418;2023-02-15T08:41:49;5.30;71.80
32296;DHT22;18781;51.550;5.418;2023-02-15T08:44:17;5.30;71.80
32296;DHT22;18781;51.550;5.418;2023-02-15T08:46:44;5.40;71.80
32296;DHT22;18781;51.550;5.418;2023-02-15T08:49:17;5.50;71.90
32296;DHT22;18781;51.550;5.418;2023-02-15T08:51:43;5.60;72.20
32296;DHT22;18781;51.550;5.418;2023-02-15T08:54:12;5.60;72.00
32296;DHT22;18781;51.550;5.418;2023-02-15T08:56:39;5.70;72.20
32296;DHT22;18781;51.550;5.418;2023-02-15T08:59:07;5.80;72.30
32296;DHT22;18781;51.550;5.418;2023-02-15T09:01:35;5.80;72.40
32296;DHT22;18781;51.550;5.418;2023-02-15T09:04:03;5.90;72.30
32296;DHT22;18781;51.550;5.418;2023-02-15T09:06:34;6.00;72.10
32296;DHT22;18781;51.550;5.418;2023-02-15T09:08:59;6.00;72.00
32296;DHT22;18781;51.550;5.418;2023-02-15T09:11:30;6.10;72.00
32296;DHT22;18781;51.550;5.418;2023-02-15T09:14:01;6.20;72.30
32296;DHT22;18781;51.550;5.418;2023-02-15T09:16:30;6.20;72.20
32296;DHT22;18781;51.550;5.418;2023-02-15T09:18:56;6.30;72.30
32296;DHT22;18781;51.550;5.418;2023-02-15T09:21:33;6.40;72.40
32296;DHT22;18781;51.550;5.418;2023-02-15T09:24:01;6.50;72.50
32296;DHT22;18781;51.550;5.418;2023-02-15T09:26:29;6.60;72.60
32296;DHT22;18781;51.550;5.418;2023-02-15T09:28:57;6.70;72.80
32296;DHT22;18781;51.550;5.418;2023-02-15T09:31:25;6.80;72.60
32296;DHT22;18781;51.550;5.418;2023-02-15T09:33:51;6.90;72.70
32296;DHT22;18781;51.550;5.418;2023-02-15T09:36:25;7.00;72.60
32296;DHT22;18781;51.550;5.418;2023-02-15T09:38:56;7.10;72.70
32296;DHT22;18781;51.550;5.418;2023-02-15T09:41:50;7.20;72.50
32296;DHT22;18781;51.550;5.418;2023-02-15T09:52:14;7.60;72.10
32296;DHT22;18781;51.550;5.418;2023-02-15T09:55:44;7.70;72.20
32296;DHT22;18781;51.550;5.418;2023-02-15T10:04:24;8.10;71.30
32296;DHT22;18781;51.550;5.418;2023-02-15T10:15:09;8.50;70.80
32296;DHT22;18781;51.550;5.418;2023-02-15T10:17:49;8.60;70.60
32296;DHT22;18781;51.550;5.418;2023-02-15T10:25:58;8.90;70.20
32296;DHT22;18781;51.550;5.418;2023-02-15T10:28:41;9.00;69.90
32296;DHT22;18781;51.550;5.418;2023-02-15T10:33:41;9.20;69.40
32296;DHT22;18781;51.550;5.418;2023-02-15T10:38:51;9.40;69.00
32296;DHT22;18781;51.550;5.418;2023-02-15T10:41:33;9.50;69.20
32296;DHT22;18781;51.550;5.418;2023-02-15T10:55:29;10.00;68.20
32296;DHT22;18781;51.550;5.418;2023-02-15T11:00:40;10.30;67.80
32296;DHT22;18781;51.550;5.418;2023-02-15T11:06:05;10.50;68.00
32296;DHT22;18781;51.550;5.418;2023-02-15T11:08:35;10.60;67.20
32296;DHT22;18781;51.550;5.418;2023-02-15T11:11:05;10.70;67.00
32296;DHT22;18781;51.550;5.418;2023-02-15T11:13:39;10.80;66.70
32296;DHT22;18781;51.550;5.418;2023-02-15T11:16:17;10.90;66.20
32296;DHT22;18781;51.550;5.418;2023-02-15T11:21:30;11.10;66.30
32296;DHT22;18781;51.550;5.418;2023-02-15T11:23:59;11.10;66.90
32296;DHT22;18781;51.550;5.418;2023-02-15T11:29:06;11.30;65.40
32296;DHT22;18781;51.550;5.418;2023-02-15T11:31:51;11.40;65.10
32296;DHT22;18781;51.550;5.418;2023-02-15T11:34:45;11.50;64.90
32296;DHT22;18781;51.550;5.418;2023-02-15T11:37:17;11.60;64.70
32296;DHT22;18781;51.550;5.418;2023-02-15T11:39:43;11.70;64.60
32296;DHT22;18781;51.550;5.418;2023-02-15T11:42:14;11.80;64.60
32296;DHT22;18781;51.550;5.418;2023-02-15T11:44:51;11.90;63.90
32296;DHT22;18781;51.550;5.418;2023-02-15T11:47:18;12.00;63.70
32296;DHT22;18781;51.550;5.418;2023-02-15T11:49:45;12.00;64.10
32296;DHT22;18781;51.550;5.418;2023-02-15T11:52:13;12.20;64.30
32296;DHT22;18781;51.550;5.418;2023-02-15T11:54:48;12.20;63.90
32296;DHT22;18781;51.550;5.418;2023-02-15T11:57:18;12.30;63.50
32296;DHT22;18781;51.550;5.418;2023-02-15T12:00:15;12.40;63.50
32296;DHT22;18781;51.550;5.418;2023-02-15T12:02:45;12.50;63.10
32296;DHT22;18781;51.550;5.418;2023-02-15T12:05:16;12.60;62.80
32296;DHT22;18781;51.550;5.418;2023-02-15T12:07:46;12.70;62.50
32296;DHT22;18781;51.550;5.418;2023-02-15T12:10:24;12.80;62.20
32296;DHT22;18781;51.550;5.418;2023-02-15T12:13:10;12.80;61.80
32296;DHT22;18781;51.550;5.418;2023-02-15T12:15:36;12.90;61.60
32296;DHT22;18781;51.550;5.418;2023-02-15T12:18:03;13.00;62.10
32296;DHT22;18781;51.550;5.418;2023-02-15T12:20:33;13.10;61.50
32296;DHT22;18781;51.550;5.418;2023-02-15T12:23:05;13.10;61.60
32296;DHT22;18781;51.550;5.418;2023-02-15T12:25:43;13.20;61.00
32296;DHT22;18781;51.550;5.418;2023-02-15T12:28:38;13.30;61.00
32296;DHT22;18781;51.550;5.418;2023-02-15T12:31:19;13.30;60.90
32296;DHT22;18781;51.550;5.418;2023-02-15T12:33:45;13.40;60.70
32296;DHT22;18781;51.550;5.418;2023-02-15T12:36:24;13.40;61.20
32296;DHT22;18781;51.550;5.418;2023-02-15T12:39:05;13.50;60.20
32296;DHT22;18781;51.550;5.418;2023-02-15T12:44:29;13.60;59.90
32296;DHT22;18781;51.550;5.418;2023-02-15T12:47:00;13.70;60.40
32296;DHT22;18781;51.550;5.418;2023-02-15T12:49:28;13.80;60.20
32296;DHT22;18781;51.550;5.418;2023-02-15T12:51:57;13.80;59.70
32296;DHT22;18781;51.550;5.418;2023-02-15T12:56:56;13.90;59.70
32296;DHT22;18781;51.550;5.418;2023-02-15T12:59:23;14.00;59.70
32296;DHT22;18781;51.550;5.418;2023-02-15T13:01:49;14.00;59.50
32296;DHT22;18781;51.550;5.418;2023-02-15T13:04:23;14.10;59.30
32296;DHT22;18781;51.550;5.418;2023-02-15T13:06:51;14.10;58.50
32296;DHT22;18781;51.550;5.418;2023-02-15T13:11:56;14.30;58.50
32296;DHT22;18781;51.550;5.418;2023-02-15T13:14:31;14.30;60.30
32296;DHT22;18781;51.550;5.418;2023-02-15T13:17:00;14.40;58.40
32296;DHT22;18781;51.550;5.418;2023-02-15T13:19:43;14.40;58.50
32296;DHT22;18781;51.550;5.418;2023-02-15T13:22:16;14.50;58.20
32296;DHT22;18781;51.550;5.418;2023-02-15T13:24:49;14.50;58.30
32296;DHT22;18781;51.550;5.418;2023-02-15T13:27:18;14.60;57.90
32296;DHT22;18781;51.550;5.418;2023-02-15T13:29:52;14.60;58.60
32296;DHT22;18781;51.550;5.418;2023-02-15T13:32:35;14.60;57.90
32296;DHT22;18781;51.550;5.418;2023-02-15T13:35:05;14.70;57.80
32296;DHT22;18781;51.550;5.418;2023-02-15T13:40:25;14.70;57.40
32296;DHT22;18781;51.550;5.418;2023-02-15T13:42:58;14.80;57.90
32296;DHT22;18781;51.550;5.418;2023-02-15T13:45:52;14.80;57.50
32296;DHT22;18781;51.550;5.418;2023-02-15T13:48:44;14.90;57.50
32296;DHT22;18781;51.550;5.418;2023-02-15T13:54:19;14.90;57.20
32296;DHT22;18781;51.550;5.418;2023-02-15T13:57:08;15.00;56.70
32296;DHT22;18781;51.550;5.418;2023-02-15T13:59:46;15.00;56.70
32296;DHT22;18781;51.550;5.418;2023-02-15T14:05:35;15.00;57.00
32296;DHT22;18781;51.550;5.418;2023-02-15T14:13:46;15.20;56.50
32296;DHT22;18781;51.550;5.418;2023-02-15T14:17:03;15.20;56.80
32296;DHT22;18781;51.550;5.418;2023-02-15T14:19:46;15.30;56.70
32296;DHT22;18781;51.550;5.418;2023-02-15T14:22:35;15.30;55.80
32296;DHT22;18781;51.550;5.418;2023-02-15T14:25:25;15.30;56.00
32296;DHT22;18781;51.550;5.418;2023-02-15T14:28:15;15.30;55.90
32296;DHT22;18781;51.550;5.418;2023-02-15T14:30:45;15.30;55.80
32296;DHT22;18781;51.550;5.418;2023-02-15T14:35:47;15.30;56.20
32296;DHT22;18781;51.550;5.418;2023-02-15T14:41:22;15.30;55.60
32296;DHT22;18781;51.550;5.418;2023-02-15T14:44:01;15.30;56.00
32296;DHT22;18781;51.550;5.418;2023-02-15T14:46:45;15.30;55.70
32296;DHT22;18781;51.550;5.418;2023-02-15T14:49:26;15.30;55.40
32296;DHT22;18781;51.550;5.418;2023-02-15T14:52:11;15.30;55.80
32296;DHT22;18781;51.550;5.418;2023-02-15T15:02:56;15.30;55.20
32296;DHT22;18781;51.550;5.418;2023-02-15T15:05:24;15.30;54.80
32296;DHT22;18781;51.550;5.418;2023-02-15T15:07:57;15.30;55.10
32296;DHT22;18781;51.550;5.418;2023-02-15T15:10:33;15.20;55.10
32296;DHT22;18781;51.550;5.418;2023-02-15T15:16:23;15.20;54.70
32296;DHT22;18781;51.550;5.418;2023-02-15T15:18:45;15.20;55.10
32296;DHT22;18781;51.550;5.418;2023-02-15T15:21:11;15.20;55.00
32296;DHT22;18781;51.550;5.418;2023-02-15T15:23:41;15.20;55.20
32296;DHT22;18781;51.550;5.418;2023-02-15T15:26:31;15.10;55.00
32296;DHT22;18781;51.550;5.418;2023-02-15T15:29:00;15.10;54.60
32296;DHT22;18781;51.550;5.418;2023-02-15T15:31:37;15.10;54.80
32296;DHT22;18781;51.550;5.418;2023-02-15T15:42:46;15.00;54.60
32296;DHT22;18781;51.550;5.418;2023-02-15T15:53:45;14.90;54.80
32296;DHT22;18781;51.550;5.418;2023-02-15T15:56:20;14.90;54.70
32296;DHT22;18781;51.550;5.418;2023-02-15T15:58:50;14.80;54.50
32296;DHT22;18781;51.550;5.418;2023-02-15T16:01:27;14.80;54.70
32296;DHT22;18781;51.550;5.418;2023-02-15T16:03:55;14.80;54.30
32296;DHT22;18781;51.550;5.418;2023-02-15T16:06:31;14.80;54.70
32296;DHT22;18781;51.550;5.418;2023-02-15T16:08:56;14.70;54.50
32296;DHT22;18781;51.550;5.418;2023-02-15T16:11:29;14.70;54.90
32296;DHT22;18781;51.550;5.418;2023-02-15T16:13:55;14.70;54.50
32296;DHT22;18781;51.550;5.418;2023-02-15T16:16:26;14.60;54.90
32296;DHT22;18781;51.550;5.418;2023-02-15T16:18:54;14.60;54.60
32296;DHT22;18781;51.550;5.418;2023-02-15T16:21:25;14.60;54.90
32296;DHT22;18781;51.550;5.418;2023-02-15T16:24:14;14.60;54.90
32296;DHT22;18781;51.550;5.418;2023-02-15T16:29:30;14.50;54.80
32296;DHT22;18781;51.550;5.418;2023-02-15T16:32:01;14.50;54.90
32296;DHT22;18781;51.550;5.418;2023-02-15T16:34:27;14.40;55.10
32296;DHT22;18781;51.550;5.418;2023-02-15T16:37:19;14.40;55.20
32296;DHT22;18781;51.550;5.418;2023-02-15T16:39:47;14.40;54.90
32296;DHT22;18781;51.550;5.418;2023-02-15T16:42:16;14.30;55.20
32296;DHT22;18781;51.550;5.418;2023-02-15T16:44:55;14.30;55.30
32296;DHT22;18781;51.550;5.418;2023-02-15T16:47:25;14.20;54.90
32296;DHT22;18781;51.550;5.418;2023-02-15T16:49:53;14.20;55.20
32296;DHT22;18781;51.550;5.418;2023-02-15T16:52:25;14.10;55.20
32296;DHT22;18781;51.550;5.418;2023-02-15T16:54:58;14.10;55.20
32296;DHT22;18781;51.550;5.418;2023-02-15T16:57:35;14.00;55.20
32296;DHT22;18781;51.550;5.418;2023-02-15T17:00:14;14.00;55.10
32296;DHT22;18781;51.550;5.418;2023-02-15T17:02:59;14.00;55.30
32296;DHT22;18781;51.550;5.418;2023-02-15T17:05:33;13.90;54.90
32296;DHT22;18781;51.550;5.418;2023-02-15T17:11:04;13.80;55.20
32296;DHT22;18781;51.550;5.418;2023-02-15T17:13:30;13.70;55.30
32296;DHT22;18781;51.550;5.418;2023-02-15T17:18:32;13.60;55.40
32296;DHT22;18781;51.550;5.418;2023-02-15T17:21:01;13.50;55.40
32296;DHT22;18781;51.550;5.418;2023-02-15T17:23:42;13.50;55.40
32296;DHT22;18781;51.550;5.418;2023-02-15T17:26:18;13.50;55.40
32296;DHT22;18781;51.550;5.418;2023-02-15T17:28:50;13.40;55.40
32296;DHT22;18781;51.550;5.418;2023-02-15T17:31:20;13.40;55.50
32296;DHT22;18781;51.550;5.418;2023-02-15T17:33:49;13.30;55.70
32296;DHT22;18781;51.550;5.418;2023-02-15T17:36:18;13.30;55.80
32296;DHT22;18781;51.550;5.418;2023-02-15T17:41:27;13.20;55.70
32296;DHT22;18781;51.550;5.418;2023-02-15T17:43:53;13.10;55.70
32296;DHT22;18781;51.550;5.418;2023-02-15T17:46:18;13.10;55.90
32296;DHT22;18781;51.550;5.418;2023-02-15T17:48:49;13.00;55.90
32296;DHT22;18781;51.550;5.418;2023-02-15T17:51:16;13.00;56.00
32296;DHT22;18781;51.550;5.418;2023-02-15T17:53:43;12.90;56.10
32296;DHT22;18781;51.550;5.418;2023-02-15T17:56:27;12.90;56.10
32296;DHT22;18781;51.550;5.418;2023-02-15T17:58:52;12.80;56.40
32296;DHT22;18781;51.550;5.418;2023-02-15T18:01:20;12.70;56.30
32296;DHT22;18781;51.550;5.418;2023-02-15T18:04:08;12.70;56.40
32296;DHT22;18781;51.550;5.418;2023-02-15T18:06:52;12.60;56.60
32296;DHT22;18781;51.550;5.418;2023-02-15T18:09:36;12.60;56.80
32296;DHT22;18781;51.550;5.418;2023-02-15T18:12:27;12.50;56.80
32296;DHT22;18781;51.550;5.418;2023-02-15T18:14:53;12.40;57.10
32296;DHT22;18781;51.550;5.418;2023-02-15T18:17:26;12.40;57.10
32296;DHT22;18781;51.550;5.418;2023-02-15T18:19:52;12.40;57.40
32296;DHT22;18781;51.550;5.418;2023-02-15T18:22:19;12.30;57.20
32296;DHT22;18781;51.550;5.418;2023-02-15T18:24:48;12.20;57.30
32296;DHT22;18781;51.550;5.418;2023-02-15T18:27:14;12.20;57.30
32296;DHT22;18781;51.550;5.418;2023-02-15T18:29:42;12.10;57.30
32296;DHT22;18781;51.550;5.418;2023-02-15T18:32:14;12.10;57.60